Ormstown, Canada
Current Conditions -  °F | °C
As of 9:00 PM on Monday 24 Nov 2014 (Local Time) from CYUL Reporting Station
Broken Clouds Broken Clouds  
Wind Chill: 55°   Ceiling: 12000
Heat Index: 55°   Visibility: 15mi
Dew Point: 48°   Wind: 28mph
Humidity: 77%   Direction: 220°SW
Pressure: 29.37"   Gusts: NA
Location:  45.13°N, 74°W
Report Text: CYUL 250200Z 22024KT 15SM FEW035 FEW090 BKN120 13/09 A2937 RMK SC1AC1AC5 SC TR SLP947 DENSITY ALT 500FT
Loading
Personal Weather Stations






























Interactive Weather Map New forecast layout! Learn more

10-Day Weather Forecast

Advertisements
Track Severe Weather on mobile